Time;durP1;ratioP1;P1;durP2;ratioP2;P2;SDS_P1;SDS_P2;PMS_P1;PMS_P2;Temp;Humidity;BMP_temperature;BMP_pressure;BME280_temperature;BME280_humidity;BME280_pressure;Samples;Min_cycle;Max_cycle;Signal;HPM_P1;HPM_P2
2024/01/19 00:02:19;;;;;;;17.08;6.05;;;;;;;-0.37;63.60;99674.69;10521223;28;20093;-65
2024/01/19 00:07:21;;;;;;;12.43;5.13;;;;;;;-0.29;63.50;99677.09;10523195;28;20506;-64
2024/01/19 00:12:23;;;;;;;14.63;6.63;;;;;;;-0.31;63.52;99682.28;10519227;27;20054;-65
2024/01/19 00:17:25;;;;;;;13.02;5.60;;;;;;;-0.38;63.76;99692.72;10517042;28;20567;-65
2024/01/19 00:22:27;;;;;;;12.20;6.10;;;;;;;-0.46;63.74;99692.03;10491354;28;20116;-66
2024/01/19 00:27:29;;;;;;;10.40;5.45;;;;;;;-0.53;63.91;99695.56;10518685;28;20143;-65
2024/01/19 00:32:31;;;;;;;12.48;5.40;;;;;;;-0.48;63.98;99698.91;10517803;28;20047;-65
2024/01/19 00:37:33;;;;;;;12.07;6.07;;;;;;;-0.47;63.93;99701.44;10520240;28;20048;-64
2024/01/19 00:42:35;;;;;;;10.70;5.68;;;;;;;-0.53;63.71;99711.84;10515104;28;20059;-64
2024/01/19 00:47:38;;;;;;;14.48;6.28;;;;;;;-0.61;63.84;99715.41;10499799;28;20071;-65
2024/01/19 00:52:40;;;;;;;14.35;5.18;;;;;;;-0.80;63.85;99717.47;10519067;28;20052;-64
2024/01/19 00:57:42;;;;;;;10.40;5.22;;;;;;;-0.84;64.09;99715.81;10518803;28;20051;-65
2024/01/19 01:02:44;;;;;;;10.05;5.13;;;;;;;-0.91;64.28;99729.66;10519283;28;20150;-64
2024/01/19 01:07:46;;;;;;;10.40;5.38;;;;;;;-1.20;63.56;99726.69;10517973;28;20059;-66
2024/01/19 01:12:48;;;;;;;9.95;5.28;;;;;;;-1.55;64.53;99732.34;10519129;28;20044;-64
2024/01/19 01:17:50;;;;;;;10.40;5.00;;;;;;;-1.77;65.01;99742.91;10499482;28;20510;-65
2024/01/19 01:22:52;;;;;;;10.27;4.80;;;;;;;-1.88;65.29;99749.91;10521634;28;20138;-64
2024/01/19 01:27:54;;;;;;;14.55;5.60;;;;;;;-1.95;65.49;99771.34;10517082;28;20157;-66
2024/01/19 01:32:56;;;;;;;13.85;5.88;;;;;;;-1.94;65.69;99770.50;10518722;28;20119;-64
2024/01/19 01:37:58;;;;;;;10.95;5.22;;;;;;;-2.00;65.39;99782.50;10517351;28;20060;-64
2024/01/19 01:43:02;;;;;;;13.00;5.40;;;;;;;-2.06;65.54;99800.50;10524539;28;20052;-65
2024/01/19 01:48:04;;;;;;;12.98;5.32;;;;;;;-2.09;65.62;99803.09;10530453;28;20044;-64
2024/01/19 01:53:07;;;;;;;17.45;5.88;;;;;;;-2.21;65.69;99813.50;10529430;28;20443;-65
2024/01/19 01:58:09;;;;;;;9.80;5.15;;;;;;;-2.25;66.01;99824.63;10524645;28;20568;-65
2024/01/19 02:03:12;;;;;;;12.95;4.82;;;;;;;-2.39;66.22;99823.91;10525132;28;20131;-64
2024/01/19 02:08:16;;;;;;;8.95;5.03;;;;;;;-2.44;66.19;99828.22;10524655;28;20044;-64
2024/01/19 02:13:18;;;;;;;8.82;5.05;;;;;;;-2.43;65.55;99836.75;10506063;28;20040;-65
2024/01/19 02:18:20;;;;;;;12.45;5.40;;;;;;;-2.62;65.04;99842.88;10527300;28;20096;-64
2024/01/19 02:23:26;;;;;;;13.88;5.78;;;;;;;-2.76;65.20;99840.44;10524517;28;20047;-65
2024/01/19 02:28:28;;;;;;;9.43;5.40;;;;;;;-2.89;65.09;99843.94;10524612;28;20051;-64
2024/01/19 02:33:30;;;;;;;15.95;5.40;;;;;;;-2.94;65.57;99848.25;10520496;28;20054;-65
2024/01/19 02:38:32;;;;;;;10.60;4.78;;;;;;;-2.93;65.52;99839.72;10522682;28;20615;-64
2024/01/19 02:43:34;;;;;;;7.93;4.07;;;;;;;-3.04;65.01;99842.34;10523511;28;20423;-64
2024/01/19 02:48:36;;;;;;;11.57;5.15;;;;;;;-3.13;65.36;99852.63;10520094;28;20097;-64
2024/01/19 02:53:39;;;;;;;9.40;4.55;;;;;;;-3.09;65.42;99858.56;10529724;28;20395;-65
2024/01/19 02:58:41;;;;;;;8.25;4.40;;;;;;;-3.11;65.38;99862.84;10510563;28;20442;-64
2024/01/19 03:03:43;;;;;;;9.30;4.47;;;;;;;-3.17;65.20;99857.78;10525440;28;20127;-65
2024/01/19 03:08:45;;;;;;;9.48;4.30;;;;;;;-3.28;65.25;99868.06;10524814;28;20040;-65
2024/01/19 03:13:49;;;;;;;10.88;4.35;;;;;;;-3.32;65.16;99871.50;10524649;28;20420;-65
2024/01/19 03:18:55;;;;;;;11.18;5.13;;;;;;;-3.44;64.80;99871.56;10521387;28;20355;-63
2024/01/19 03:23:57;;;;;;;13.45;4.93;;;;;;;-3.51;65.04;99872.44;10521747;28;20093;-66
2024/01/19 03:28:59;;;;;;;10.00;5.30;;;;;;;-3.56;64.98;99888.63;10526047;28;20079;-64
2024/01/19 03:34:01;;;;;;;10.07;4.50;;;;;;;-3.74;64.83;99890.41;10506303;28;20108;-64
2024/01/19 03:39:03;;;;;;;11.98;5.00;;;;;;;-3.76;64.99;99896.38;10522155;28;20056;-63
2024/01/19 03:44:05;;;;;;;9.68;4.65;;;;;;;-3.81;64.71;99906.59;10520849;28;20093;-65
2024/01/19 03:49:07;;;;;;;11.40;4.18;;;;;;;-4.07;64.62;99893.03;10524033;28;20588;-63
2024/01/19 03:54:09;;;;;;;8.65;4.25;;;;;;;-4.32;64.30;99900.75;10524695;28;20314;-63
2024/01/19 03:59:11;;;;;;;9.80;5.03;;;;;;;-4.63;64.81;99905.00;10503527;28;20048;-63
2024/01/19 04:04:13;;;;;;;10.05;4.13;;;;;;;-4.65;64.91;99917.72;10522404;28;20506;-64
2024/01/19 04:09:16;;;;;;;9.68;4.82;;;;;;;-4.67;64.91;99918.59;10522797;28;20035;-63
2024/01/19 04:14:18;;;;;;;12.38;5.07;;;;;;;-4.67;64.99;99934.75;10518772;28;20040;-65
2024/01/19 04:19:20;;;;;;;10.55;5.15;;;;;;;-4.65;64.96;99939.88;10519140;28;20516;-63
2024/01/19 04:24:22;;;;;;;11.05;5.55;;;;;;;-4.60;64.95;99939.00;10521214;28;20039;-63
2024/01/19 04:29:24;;;;;;;11.88;4.47;;;;;;;-4.61;64.89;99939.03;10518397;28;20044;-64
2024/01/19 04:34:26;;;;;;;10.32;4.80;;;;;;;-4.60;64.85;99939.00;10518935;28;20046;-64
2024/01/19 04:39:28;;;;;;;11.27;5.22;;;;;;;-4.62;64.59;99930.50;10518577;28;20059;-64
2024/01/19 04:44:30;;;;;;;11.90;5.00;;;;;;;-4.85;64.19;99950.00;10518346;28;20047;-63
2024/01/19 04:49:33;;;;;;;9.77;4.75;;;;;;;-5.02;64.47;99954.25;10519968;28;20087;-63
2024/01/19 04:54:34;;;;;;;14.68;5.43;;;;;;;-5.10;64.60;99958.47;10516861;28;20114;-63
2024/01/19 04:59:37;;;;;;;8.95;5.03;;;;;;;-5.07;64.80;99967.81;10518662;28;20055;-63
2024/01/19 05:04:40;;;;;;;8.57;4.70;;;;;;;-5.07;64.69;99968.66;10518276;28;20044;-63
2024/01/19 05:09:42;;;;;;;9.25;4.75;;;;;;;-5.10;64.51;99978.88;10523949;28;20495;-64
2024/01/19 05:14:47;;;;;;;10.30;5.10;;;;;;;-5.09;64.46;99995.00;10518509;28;20040;-63
2024/01/19 05:19:49;;;;;;;9.43;4.32;;;;;;;-5.08;64.63;99989.91;10511959;28;20109;-64
2024/01/19 05:24:51;;;;;;;11.52;4.57;;;;;;;-5.01;64.85;99995.88;10532906;28;20052;-64
2024/01/19 05:29:53;;;;;;;7.90;4.05;;;;;;;-4.92;64.71;100003.56;10529742;28;20476;-64
2024/01/19 05:34:56;;;;;;;11.60;4.85;;;;;;;-4.92;64.19;100009.53;10529619;28;20052;-64
2024/01/19 05:39:58;;;;;;;8.50;3.28;;;;;;;-4.97;64.09;100006.09;10526909;28;20143;-65
2024/01/19 05:45:00;;;;;;;7.60;3.60;;;;;;;-4.88;64.01;100020.59;10525611;28;20072;-64
2024/01/19 05:50:02;;;;;;;8.15;3.95;;;;;;;-4.78;63.91;100029.97;10525683;28;20036;-64
2024/01/19 05:55:05;;;;;;;8.63;4.38;;;;;;;-4.85;63.46;100023.16;10530521;28;20050;-64
2024/01/19 06:00:08;;;;;;;9.38;4.50;;;;;;;-4.93;63.43;100038.41;10524636;28;20458;-64
2024/01/19 06:05:14;;;;;;;11.38;4.40;;;;;;;-4.76;64.15;100043.59;10524873;28;20067;-65
2024/01/19 06:10:17;;;;;;;8.75;4.43;;;;;;;-4.57;64.00;100055.56;10531588;27;20494;-65
2024/01/19 06:15:19;;;;;;;7.65;3.20;;;;;;;-4.40;63.95;100061.53;10524432;28;20043;-65
2024/01/19 06:20:21;;;;;;;8.63;4.38;;;;;;;-4.32;63.32;100077.72;10530282;28;20153;-64
2024/01/19 06:25:23;;;;;;;9.20;3.92;;;;;;;-4.30;63.77;100078.56;10526831;28;20533;-64
2024/01/19 06:30:25;;;;;;;10.02;4.20;;;;;;;-4.20;64.08;100085.41;10519927;28;20088;-65
2024/01/19 06:35:27;;;;;;;9.23;3.88;;;;;;;-4.10;63.59;100093.97;10523894;28;20583;-64
2024/01/19 06:40:29;;;;;;;8.10;3.78;;;;;;;-4.01;63.67;100086.28;10525403;28;20085;-65
2024/01/19 06:45:31;;;;;;;12.35;4.70;;;;;;;-3.97;63.02;100096.53;10506764;28;20051;-64
2024/01/19 06:50:33;;;;;;;10.48;4.68;;;;;;;-4.10;63.32;100128.00;10525207;28;20062;-64
2024/01/19 06:55:35;;;;;;;10.30;3.45;;;;;;;-4.14;64.04;100131.41;10505854;28;20051;-65
2024/01/19 07:00:37;;;;;;;11.88;4.00;;;;;;;-3.63;64.36;100124.66;10524657;28;20047;-65
2024/01/19 07:05:42;;;;;;;9.23;3.60;;;;;;;-3.23;63.75;100124.63;10525090;28;20055;-64
2024/01/19 07:10:44;;;;;;;10.60;3.92;;;;;;;-3.02;63.50;100131.44;10522254;28;20229;-65
2024/01/19 07:15:46;;;;;;;8.07;4.80;;;;;;;-2.83;63.34;100128.81;10505645;28;20032;-64
2024/01/19 07:20:48;;;;;;;11.45;4.18;;;;;;;-3.00;62.84;100148.47;10525247;28;20056;-64
2024/01/19 07:25:50;;;;;;;10.35;3.88;;;;;;;-3.24;62.12;100155.34;10503573;27;20044;-65
2024/01/19 07:30:52;;;;;;;8.98;4.68;;;;;;;-3.88;62.07;100173.19;10521856;28;20079;-65
2024/01/19 07:35:54;;;;;;;11.63;5.45;;;;;;;-4.04;62.75;100184.22;10511487;28;20044;-64
2024/01/19 07:40:58;;;;;;;12.52;5.25;;;;;;;-4.42;62.39;100200.25;10520226;28;20488;-64
2024/01/19 07:46:00;;;;;;;10.10;5.28;;;;;;;-4.38;62.63;100210.44;10522441;28;20554;-64
2024/01/19 07:51:03;;;;;;;10.40;4.70;;;;;;;-4.26;62.91;100205.41;10502566;28;20045;-65
2024/01/19 07:56:05;;;;;;;13.95;5.55;;;;;;;-4.22;62.76;100211.41;10520931;28;20134;-65
2024/01/19 08:01:07;;;;;;;10.40;4.82;;;;;;;-4.10;62.82;100230.19;10500786;28;20603;-66
2024/01/19 08:06:11;;;;;;;15.95;5.22;;;;;;;-4.07;62.02;100235.28;10519894;28;20039;-64
2024/01/19 08:11:13;;;;;;;12.50;5.32;;;;;;;-4.05;62.53;100248.03;10522398;28;20047;-65
2024/01/19 08:16:15;;;;;;;13.93;5.60;;;;;;;-3.90;62.64;100245.56;10520744;28;20039;-65
2024/01/19 08:21:17;;;;;;;13.50;5.60;;;;;;;-3.80;62.40;100266.03;10522892;28;20051;-65
2024/01/19 08:26:20;;;;;;;21.33;6.07;;;;;;;-3.56;62.48;100254.16;10516190;28;20043;-65
2024/01/19 08:31:24;;;;;;;12.52;5.40;;;;;;;-3.10;62.53;100266.19;10521048;28;20048;-65
2024/01/19 08:36:26;;;;;;;14.07;5.65;;;;;;;-2.81;62.57;100272.13;10515687;28;20124;-65
2024/01/19 08:41:28;;;;;;;12.20;5.82;;;;;;;-2.60;62.01;100261.88;10517103;28;20044;-64
2024/01/19 08:46:30;;;;;;;15.60;5.40;;;;;;;-2.32;61.96;100271.19;10518686;28;20067;-64
2024/01/19 08:51:32;;;;;;;8.77;4.40;;;;;;;-2.11;61.60;100283.09;10498023;28;20127;-65
2024/01/19 08:56:34;;;;;;;8.95;4.00;;;;;;;-1.79;61.99;100286.38;10498804;28;20130;-64
2024/01/19 09:01:46;;;;;;;13.38;4.78;;;;;;;-1.49;61.44;100290.53;10521573;28;20040;-64
2024/01/19 09:06:48;;;;;;;8.07;4.32;;;;;;;-1.34;61.76;100293.84;10515138;28;20047;-63
2024/01/19 09:11:50;;;;;;;11.02;3.97;;;;;;;-1.06;61.23;100298.81;10518256;28;20074;-64
2024/01/19 09:16:53;;;;;;;7.32;3.38;;;;;;;-0.87;61.41;100300.34;10516295;28;20040;-64
2024/01/19 09:21:56;;;;;;;8.52;3.50;;;;;;;-0.60;60.93;100307.84;10514642;28;20061;-64
2024/01/19 09:26:58;;;;;;;6.68;3.25;;;;;;;-0.44;60.92;100319.69;10515216;28;20492;-64
2024/01/19 09:32:01;;;;;;;6.15;3.08;;;;;;;-0.34;60.41;100332.44;10515893;28;20458;-64
2024/01/19 09:37:03;;;;;;;8.43;3.15;;;;;;;-0.17;60.49;100340.00;10497114;28;20505;-64
2024/01/19 09:42:24;;;;;;;10.00;4.13;;;;;;;0.17;60.02;100350.75;10514921;28;20067;-66
2024/01/19 09:47:33;;;;;;;8.20;3.05;;;;;;;0.34;59.48;100359.97;10512984;28;20484;-67
2024/01/19 09:52:44;;;;;;;8.20;3.83;;;;;;;0.32;59.90;100369.44;10513571;28;20040;-66
2024/01/19 09:57:48;;;;;;;9.90;3.17;;;;;;;0.47;59.66;100378.69;10517060;28;20067;-66
2024/01/19 10:02:52;;;;;;;6.65;2.97;;;;;;;0.69;59.67;100372.41;10516783;28;20182;-66
2024/01/19 10:07:57;;;;;;;8.02;3.63;;;;;;;0.83;59.41;100385.13;10521941;28;20548;-67
2024/01/19 10:12:59;;;;;;;6.10;3.67;;;;;;;1.03;59.01;100385.72;10519829;28;20133;-66
2024/01/19 10:18:03;;;;;;;7.30;3.33;;;;;;;0.72;58.33;100385.25;10517072;28;20128;-67
2024/01/19 10:23:22;;;;;;;7.47;3.42;;;;;;;0.24;59.32;100383.28;10508970;28;20051;-67
2024/01/19 10:28:29;;;;;;;11.20;3.33;;;;;;;0.43;59.22;100384.75;10505118;28;20047;-67
2024/01/19 10:33:31;;;;;;;5.47;2.90;;;;;;;0.50;59.31;100394.13;10519868;28;20036;-67
2024/01/19 10:38:34;;;;;;;8.27;3.88;;;;;;;0.74;59.34;100409.25;10521189;28;20283;-67
2024/01/19 10:43:36;;;;;;;7.60;2.95;;;;;;;0.95;58.98;100408.97;10520974;28;20067;-67
2024/01/19 10:48:38;;;;;;;6.82;2.85;;;;;;;1.35;58.66;100407.56;10519900;28;20526;-67
2024/01/19 10:53:40;;;;;;;8.70;3.88;;;;;;;1.36;58.22;100416.97;10501246;28;20032;-67
2024/01/19 10:58:42;;;;;;;9.50;3.20;;;;;;;1.09;58.82;100414.81;10523676;28;20048;-67
2024/01/19 11:03:44;;;;;;;5.55;3.05;;;;;;;0.83;59.03;100422.00;10520659;28;20038;-67
2024/01/19 11:08:46;;;;;;;7.00;3.00;;;;;;;0.99;59.14;100418.34;10502885;28;20040;-67
2024/01/19 11:13:54;;;;;;;7.22;3.25;;;;;;;1.27;58.43;100411.97;10518618;27;20052;-67
2024/01/19 11:18:56;;;;;;;7.43;3.15;;;;;;;1.15;59.05;100411.28;10503842;28;20051;-66
2024/01/19 11:23:58;;;;;;;7.10;2.70;;;;;;;1.62;58.34;100420.91;10521851;28;20048;-67
2024/01/19 11:29:12;;;;;;;7.07;2.83;;;;;;;1.92;57.98;100436.72;10502070;28;20044;-67
2024/01/19 11:34:49;;;;;;;12.77;3.60;;;;;;;1.68;57.44;100442.28;10519724;28;20131;-67
2024/01/19 11:39:52;;;;;;;5.82;3.00;;;;;;;1.21;58.13;100440.41;10514447;27;20066;-67
2024/01/19 11:44:54;;;;;;;6.93;3.35;;;;;;;1.54;58.65;100443.38;10519796;28;20469;-67
2024/01/19 11:49:55;;;;;;;7.43;2.75;;;;;;;2.15;57.88;100444.91;10517319;28;20503;-67
2024/01/19 11:54:58;;;;;;;6.30;2.75;;;;;;;2.42;57.88;100446.13;10520129;28;20492;-67
2024/01/19 12:00:02;;;;;;;4.85;2.42;;;;;;;2.46;58.03;100447.78;10519888;27;20047;-67
2024/01/19 12:05:09;;;;;;;7.45;3.30;;;;;;;2.68;58.00;100449.06;10513407;28;20127;-67
2024/01/19 12:10:16;;;;;;;8.40;3.72;;;;;;;2.85;57.89;100452.19;10515682;28;20397;-67
2024/01/19 12:15:18;;;;;;;5.57;2.83;;;;;;;2.96;57.36;100446.81;10516158;28;20044;-68
2024/01/19 12:20:22;;;;;;;6.68;2.83;;;;;;;3.17;56.95;100455.84;10516885;28;20500;-66
2024/01/19 12:25:25;;;;;;;6.88;3.28;;;;;;;3.04;57.14;100458.69;10497138;28;20058;-66
2024/01/19 12:30:32;;;;;;;6.68;3.17;;;;;;;3.17;56.74;100461.88;10519295;28;20043;-66
2024/01/19 12:35:34;;;;;;;7.32;3.20;;;;;;;3.29;56.78;100453.00;10516969;28;20497;-67
2024/01/19 12:40:38;;;;;;;7.00;3.38;;;;;;;3.54;56.42;100443.78;10514859;28;20064;-66
2024/01/19 12:45:40;;;;;;;7.18;3.30;;;;;;;3.36;55.95;100446.78;10516119;28;20039;-66
2024/01/19 12:50:42;;;;;;;6.28;3.13;;;;;;;3.23;56.96;100455.72;10519091;27;20036;-66
2024/01/19 12:55:46;;;;;;;6.10;3.15;;;;;;;3.25;56.90;100451.34;10499503;28;20453;-66
2024/01/19 13:00:49;;;;;;;6.97;3.17;;;;;;;3.14;57.02;100446.41;10514084;28;20082;-66
2024/01/19 13:05:51;;;;;;;7.53;3.20;;;;;;;2.97;57.43;100451.94;10519499;28;20500;-66
2024/01/19 13:11:04;;;;;;;6.15;3.00;;;;;;;3.19;57.01;100446.31;10502964;28;20562;-66
2024/01/19 13:16:12;;;;;;;9.38;4.07;;;;;;;3.14;57.47;100436.06;10509927;28;20492;-66
2024/01/19 13:21:15;;;;;;;7.95;3.13;;;;;;;3.20;57.38;100438.53;10524296;28;20062;-66
2024/01/19 13:26:19;;;;;;;5.78;3.22;;;;;;;2.93;57.54;100442.53;10498542;28;20086;-66
2024/01/19 13:31:21;;;;;;;6.63;2.80;;;;;;;2.79;57.68;100449.72;10499473;28;20052;-67
2024/01/19 13:36:25;;;;;;;7.72;4.10;;;;;;;2.42;58.15;100455.63;10483792;28;20609;-67
2024/01/19 13:41:27;;;;;;;7.22;3.28;;;;;;;2.70;58.35;100464.56;10515304;27;20058;-67
2024/01/19 13:46:29;;;;;;;6.38;2.83;;;;;;;2.77;58.04;100472.16;10535481;27;20408;-67
2024/01/19 13:51:31;;;;;;;6.45;3.38;;;;;;;2.74;58.18;100482.56;10521774;27;20066;-67
2024/01/19 13:56:33;;;;;;;7.93;3.00;;;;;;;2.73;58.11;100474.81;10514342;27;20043;-67
2024/01/19 14:01:35;;;;;;;6.55;2.92;;;;;;;2.75;58.14;100485.97;10530917;27;20296;-67
2024/01/19 14:06:37;;;;;;;6.05;3.03;;;;;;;2.71;58.19;100490.34;10526004;28;20040;-67
2024/01/19 14:11:40;;;;;;;6.40;3.45;;;;;;;2.85;58.18;100503.00;10524289;28;20463;-67
2024/01/19 14:16:42;;;;;;;6.78;3.22;;;;;;;2.74;58.45;100500.63;10499113;28;20050;-67
2024/01/19 14:21:45;;;;;;;5.82;2.90;;;;;;;2.72;58.39;100496.38;10522211;28;20048;-67
2024/01/19 14:26:47;;;;;;;6.13;3.35;;;;;;;2.72;58.49;100497.22;10505430;28;20131;-67
2024/01/19 14:31:50;;;;;;;14.77;4.07;;;;;;;2.61;58.51;100503.44;10487713;28;20059;-67
2024/01/19 14:36:53;;;;;;;5.93;2.92;;;;;;;2.62;58.72;100518.91;10522158;28;20516;-66
2024/01/19 14:41:55;;;;;;;6.47;3.20;;;;;;;2.67;58.56;100519.69;10523613;28;20044;-68
2024/01/19 14:46:57;;;;;;;9.93;3.50;;;;;;;2.54;58.56;100528.53;10522614;27;20184;-67
2024/01/19 14:51:59;;;;;;;6.00;2.50;;;;;;;2.24;58.83;100534.22;10535117;27;20036;-68
2024/01/19 14:57:03;;;;;;;5.65;2.72;;;;;;;1.86;59.19;100547.72;10511579;28;20303;-68
2024/01/19 15:02:05;;;;;;;6.82;2.85;;;;;;;1.56;59.74;100553.31;10522645;27;20516;-67
2024/01/19 15:07:08;;;;;;;5.70;2.97;;;;;;;1.45;60.00;100559.47;10540911;27;20449;-68
2024/01/19 15:12:10;;;;;;;7.38;3.20;;;;;;;1.20;60.28;100570.06;10524369;28;20042;-67
2024/01/19 15:17:12;;;;;;;16.60;7.30;;;;;;;1.03;60.37;100577.16;10504539;28;20301;-67
2024/01/19 15:22:14;;;;;;;12.20;4.45;;;;;;;0.74;60.88;100597.19;10521875;28;20056;-68
2024/01/19 15:27:16;;;;;;;20.00;5.47;;;;;;;0.64;61.07;100599.84;10510105;28;20048;-68
2024/01/19 15:32:18;;;;;;;9.27;3.45;;;;;;;0.52;61.31;100599.06;10534956;28;20058;-68
2024/01/19 15:37:20;;;;;;;6.68;3.33;;;;;;;0.36;61.53;100609.53;10521102;28;20576;-68
2024/01/19 15:42:22;;;;;;;8.80;3.40;;;;;;;0.17;61.78;100624.25;10520163;28;20054;-68
2024/01/19 15:47:27;;;;;;;7.05;3.45;;;;;;;0.03;62.23;100635.47;10520377;28;20036;-68
2024/01/19 15:52:30;;;;;;;7.05;3.22;;;;;;;0.01;62.39;100647.50;10521396;28;20081;-68
2024/01/19 15:57:32;;;;;;;7.85;3.28;;;;;;;0.15;62.71;100659.41;10502013;28;20203;-68
2024/01/19 16:02:34;;;;;;;9.30;4.30;;;;;;;0.26;62.78;100665.31;10518525;28;20040;-68
2024/01/19 16:07:36;;;;;;;8.40;4.70;;;;;;;0.15;62.96;100667.13;10527653;28;20051;-68
2024/01/19 16:12:38;;;;;;;9.00;4.25;;;;;;;0.02;63.09;100669.75;10519310;28;20119;-68
2024/01/19 16:17:41;;;;;;;9.90;4.00;;;;;;;-0.10;63.04;100667.25;10508558;28;20055;-67
2024/01/19 16:22:43;;;;;;;10.00;4.47;;;;;;;-0.17;63.26;100675.88;10515963;28;20133;-67
2024/01/19 16:27:45;;;;;;;10.50;4.78;;;;;;;-0.35;63.44;100679.34;10521731;28;20035;-68
2024/01/19 16:32:48;;;;;;;7.65;3.75;;;;;;;-0.51;63.44;100681.13;10518196;28;20127;-66
2024/01/19 16:37:50;;;;;;;7.13;3.53;;;;;;;-0.72;63.38;100691.44;10518981;28;20465;-66
2024/01/19 16:42:52;;;;;;;8.13;3.17;;;;;;;-0.83;63.65;100693.19;10515919;28;20550;-65
2024/01/19 16:47:56;;;;;;;6.97;3.30;;;;;;;-0.83;63.86;100697.47;10517672;28;20059;-66
2024/01/19 16:52:58;;;;;;;9.10;3.92;;;;;;;-0.75;63.87;100719.72;10518495;28;20170;-66
2024/01/19 16:58:00;;;;;;;7.07;3.50;;;;;;;-0.74;64.01;100718.84;10493733;28;20428;-66
2024/01/19 17:03:03;;;;;;;7.78;3.67;;;;;;;-0.71;63.73;100724.00;10500843;28;20042;-66
2024/01/19 17:08:06;;;;;;;11.07;3.92;;;;;;;-0.80;63.79;100725.72;10511007;28;20040;-66
2024/01/19 17:13:08;;;;;;;7.50;3.88;;;;;;;-0.78;63.83;100729.97;10492516;28;20275;-67
2024/01/19 17:18:10;;;;;;;8.90;3.90;;;;;;;-0.68;63.84;100720.56;10513870;28;20047;-65
2024/01/19 17:23:12;;;;;;;9.85;4.95;;;;;;;-0.64;63.72;100727.41;10496147;28;20484;-66
2024/01/19 17:28:14;;;;;;;8.90;4.40;;;;;;;-0.61;63.64;100733.38;10510960;28;20047;-64
2024/01/19 17:33:16;;;;;;;8.52;4.07;;;;;;;-0.56;63.62;100746.22;10497017;28;20051;-65
2024/01/19 17:38:19;;;;;;;10.38;4.32;;;;;;;-0.55;63.48;100742.78;10515165;28;20044;-65
2024/01/19 17:43:23;;;;;;;7.60;3.40;;;;;;;-0.66;63.54;100757.38;10516080;28;20036;-65
2024/01/19 17:48:25;;;;;;;12.07;3.72;;;;;;;-0.90;63.15;100773.63;10514740;28;20036;-65
2024/01/19 17:53:27;;;;;;;10.38;3.95;;;;;;;-1.21;63.59;100779.63;10497991;28;20044;-66
2024/01/19 17:58:30;;;;;;;8.55;4.18;;;;;;;-1.49;63.57;100781.28;10487830;28;20043;-65
2024/01/19 18:03:32;;;;;;;5.65;3.20;;;;;;;-1.71;64.37;100796.59;10494060;28;20512;-65
2024/01/19 18:08:34;;;;;;;6.90;2.97;;;;;;;-1.82;64.99;100803.41;10516382;28;20127;-65
2024/01/19 18:13:40;;;;;;;7.55;3.55;;;;;;;-1.86;65.58;100811.94;10516973;28;20036;-65
2024/01/19 18:18:44;;;;;;;8.63;3.70;;;;;;;-1.85;65.17;100821.31;10497922;28;20036;-66
2024/01/19 18:23:48;;;;;;;12.40;4.05;;;;;;;-1.83;65.27;100835.88;10516975;28;20048;-64
2024/01/19 18:28:50;;;;;;;8.55;3.47;;;;;;;-1.67;65.76;100826.53;10521061;28;20036;-65
2024/01/19 18:33:52;;;;;;;9.43;3.90;;;;;;;-1.48;64.87;100838.56;10520952;28;20136;-65
2024/01/19 18:38:57;;;;;;;5.65;3.22;;;;;;;-1.43;64.75;100842.84;10535680;27;20052;-65
2024/01/19 18:43:59;;;;;;;9.32;3.83;;;;;;;-1.52;64.59;100852.25;10502359;28;20130;-65
2024/01/19 18:49:01;;;;;;;11.48;4.47;;;;;;;-1.50;64.35;100860.78;10519822;28;20046;-65
2024/01/19 18:54:03;;;;;;;8.70;4.22;;;;;;;-1.44;64.26;100876.22;10521793;28;20040;-65
2024/01/19 18:59:06;;;;;;;8.45;3.90;;;;;;;-1.39;64.59;100880.50;10517300;28;20048;-65
2024/01/19 19:04:10;;;;;;;7.15;3.75;;;;;;;-1.23;64.50;100892.53;10507703;28;20044;-64
2024/01/19 19:09:12;;;;;;;9.07;4.05;;;;;;;-1.19;64.33;100895.97;10520814;28;20072;-65
2024/01/19 19:14:14;;;;;;;7.30;3.70;;;;;;;-1.10;64.29;100903.69;10511953;28;20040;-64
2024/01/19 19:19:23;;;;;;;7.10;3.97;;;;;;;-1.14;64.27;100904.53;10524954;28;20043;-64
2024/01/19 19:24:25;;;;;;;7.82;4.05;;;;;;;-1.05;64.11;100912.28;10524282;28;20051;-66
2024/01/19 19:29:27;;;;;;;11.80;3.83;;;;;;;-1.10;64.04;100911.38;10505140;28;20131;-65
2024/01/19 19:34:31;;;;;;;6.53;3.67;;;;;;;-1.08;63.93;100917.38;10507505;28;20040;-65
2024/01/19 19:39:35;;;;;;;13.77;4.35;;;;;;;-1.05;63.87;100917.41;10522145;28;20145;-64
2024/01/19 19:44:37;;;;;;;11.27;4.65;;;;;;;-1.06;63.84;100927.69;10525796;28;20047;-66
2024/01/19 19:49:39;;;;;;;8.30;4.20;;;;;;;-1.13;63.75;100939.63;10510999;27;20070;-66
2024/01/19 19:54:42;;;;;;;5.65;3.10;;;;;;;-1.15;63.89;100941.34;10504644;27;20089;-65
2024/01/19 19:59:44;;;;;;;8.13;3.97;;;;;;;-1.20;63.51;100937.88;10496039;28;21054;-66
2024/01/19 20:04:46;;;;;;;7.28;4.22;;;;;;;-1.39;63.46;100936.94;10497736;27;20823;-65
2024/01/19 20:09:49;;;;;;;7.15;3.65;;;;;;;-1.71;63.24;100933.38;10480479;28;20052;-66
2024/01/19 20:14:52;;;;;;;11.98;4.57;;;;;;;-2.05;63.18;100937.44;10499143;28;20055;-66
2024/01/19 20:19:55;;;;;;;8.73;4.03;;;;;;;-2.34;63.72;100938.03;10509074;28;20051;-66
2024/01/19 20:24:57;;;;;;;7.20;4.20;;;;;;;-2.51;63.99;100952.41;10520581;28;20044;-63
2024/01/19 20:29:59;;;;;;;6.85;3.60;;;;;;;-2.58;64.43;100961.75;10523041;28;20119;-65
2024/01/19 20:35:01;;;;;;;11.73;4.63;;;;;;;-2.76;64.78;100966.69;10526307;28;20054;-67
2024/01/19 20:40:04;;;;;;;10.20;4.70;;;;;;;-2.75;64.59;100968.38;10499771;28;20122;-64
2024/01/19 20:45:08;;;;;;;6.82;3.75;;;;;;;-2.85;64.84;100969.13;10517563;28;20044;-64
2024/01/19 20:50:10;;;;;;;6.55;3.30;;;;;;;-2.91;64.79;100964.81;10504151;28;20097;-64
2024/01/19 20:55:15;;;;;;;9.52;3.85;;;;;;;-2.94;64.56;100958.81;10508249;28;20138;-65
2024/01/19 21:00:17;;;;;;;9.23;4.03;;;;;;;-3.01;64.17;100962.13;10503103;28;20040;-68
2024/01/19 21:05:19;;;;;;;8.45;3.35;;;;;;;-3.12;64.21;100959.44;10517824;28;20126;-64
2024/01/19 21:10:22;;;;;;;6.97;3.13;;;;;;;-3.26;64.07;100965.25;10519533;28;20051;-68
2024/01/19 21:15:24;;;;;;;8.02;3.80;;;;;;;-3.36;64.63;100971.06;10507731;28;20036;-64
2024/01/19 21:20:29;;;;;;;7.85;3.78;;;;;;;-3.38;64.45;100975.31;10516290;28;20044;-64
2024/01/19 21:25:31;;;;;;;8.75;3.78;;;;;;;-3.40;64.39;100974.41;10507059;28;20056;-65
2024/01/19 21:30:33;;;;;;;9.73;4.13;;;;;;;-3.48;64.48;100976.03;10504638;28;20507;-65
2024/01/19 21:35:35;;;;;;;6.72;3.95;;;;;;;-3.56;64.32;100977.63;10504054;28;20135;-65
2024/01/19 21:40:38;;;;;;;7.68;4.15;;;;;;;-3.67;64.84;100988.56;10522851;28;20047;-65
2024/01/19 21:45:40;;;;;;;10.82;4.30;;;;;;;-3.65;64.89;100995.41;10525757;28;20054;-67
2024/01/19 21:50:42;;;;;;;8.65;3.40;;;;;;;-3.84;64.57;101004.50;10509555;28;20047;-65
2024/01/19 21:55:44;;;;;;;8.80;4.22;;;;;;;-3.95;64.82;101009.44;10532857;28;20135;-67
2024/01/19 22:00:47;;;;;;;9.02;4.18;;;;;;;-3.97;65.08;101012.78;10511225;28;21048;-66
2024/01/19 22:05:52;;;;;;;10.38;4.28;;;;;;;-4.01;64.92;101017.00;10517490;28;20094;-64
2024/01/19 22:10:54;;;;;;;10.52;5.13;;;;;;;-4.07;64.62;101014.34;10521432;27;20142;-67
2024/01/19 22:15:56;;;;;;;8.10;3.45;;;;;;;-4.08;64.49;101016.88;10524776;28;20135;-68
2024/01/19 22:20:58;;;;;;;11.30;5.55;;;;;;;-4.18;64.22;101028.63;10517532;28;20056;-68
2024/01/19 22:26:00;;;;;;;11.18;4.55;;;;;;;-4.13;64.38;101032.13;10532496;28;20047;-66
2024/01/19 22:31:03;;;;;;;5.47;3.42;;;;;;;-4.08;64.33;101038.19;10522845;28;20107;-66
2024/01/19 22:36:07;;;;;;;7.50;4.00;;;;;;;-4.10;64.37;101041.53;10530447;28;20044;-65
2024/01/19 22:41:20;;;;;;;7.15;3.33;;;;;;;-4.09;64.30;101048.34;10530041;28;20048;-67
2024/01/19 22:46:22;;;;;;;9.82;3.78;;;;;;;-4.21;63.81;101055.81;10509733;28;20040;-65
2024/01/19 22:51:25;;;;;;;9.75;3.65;;;;;;;-4.52;63.70;101059.50;10521181;28;20036;-65
2024/01/19 22:56:28;;;;;;;8.35;4.10;;;;;;;-4.60;63.75;101053.38;10508907;28;20138;-65
2024/01/19 23:01:30;;;;;;;9.80;4.07;;;;;;;-4.70;63.66;101059.16;10510181;28;20047;-66
2024/01/19 23:06:32;;;;;;;12.63;3.75;;;;;;;-4.78;63.54;101064.09;10523073;28;20048;-65
2024/01/19 23:11:34;;;;;;;9.00;4.07;;;;;;;-4.84;63.50;101073.31;10521860;28;20036;-65
2024/01/19 23:16:36;;;;;;;9.30;4.28;;;;;;;-4.92;63.55;101077.41;10503359;28;20075;-65